sensor_id;sensor_type;location;lat;lon;timestamp;temperature;humidity
25438;DHT22;13364;49.084;9.978;2023-05-10T00:00:36;12.80;100.00
25438;DHT22;13364;49.084;9.978;2023-05-10T00:03:03;12.80;100.00
25438;DHT22;13364;49.084;9.978;2023-05-10T00:05:32;12.70;100.00
25438;DHT22;13364;49.084;9.978;2023-05-10T00:07:59;12.70;100.00
25438;DHT22;13364;49.084;9.978;2023-05-10T00:10:26;12.70;100.00
25438;DHT22;13364;49.084;9.978;2023-05-10T00:12:53;12.80;100.00
25438;DHT22;13364;49.084;9.978;2023-05-10T00:15:20;12.80;100.00
25438;DHT22;13364;49.084;9.978;2023-05-10T00:17:47;12.80;100.00
25438;DHT22;13364;49.084;9.978;2023-05-10T00:20:14;12.80;100.00
25438;DHT22;13364;49.084;9.978;2023-05-10T00:22:42;12.90;100.00
25438;DHT22;13364;49.084;9.978;2023-05-10T00:25:09;13.00;100.00
25438;DHT22;13364;49.084;9.978;2023-05-10T00:27:37;13.00;100.00
25438;DHT22;13364;49.084;9.978;2023-05-10T00:30:04;13.10;100.00
25438;DHT22;13364;49.084;9.978;2023-05-10T00:32:32;13.20;100.00
25438;DHT22;13364;49.084;9.978;2023-05-10T00:34:59;13.20;100.00
25438;DHT22;13364;49.084;9.978;2023-05-10T00:37:26;13.20;100.00
25438;DHT22;13364;49.084;9.978;2023-05-10T00:39:54;13.10;100.00
25438;DHT22;13364;49.084;9.978;2023-05-10T00:42:21;13.20;100.00
25438;DHT22;13364;49.084;9.978;2023-05-10T00:44:50;13.20;100.00
25438;DHT22;13364;49.084;9.978;2023-05-10T00:47:18;13.20;100.00
25438;DHT22;13364;49.084;9.978;2023-05-10T00:49:45;13.20;100.00
25438;DHT22;13364;49.084;9.978;2023-05-10T00:52:13;13.20;100.00
25438;DHT22;13364;49.084;9.978;2023-05-10T00:54:40;13.10;100.00
25438;DHT22;13364;49.084;9.978;2023-05-10T00:57:07;13.10;100.00
25438;DHT22;13364;49.084;9.978;2023-05-10T00:59:35;13.10;100.00
25438;DHT22;13364;49.084;9.978;2023-05-10T01:02:02;13.10;100.00
25438;DHT22;13364;49.084;9.978;2023-05-10T01:04:30;13.00;100.00
25438;DHT22;13364;49.084;9.978;2023-05-10T01:06:57;13.10;100.00
25438;DHT22;13364;49.084;9.978;2023-05-10T01:09:24;13.10;100.00
25438;DHT22;13364;49.084;9.978;2023-05-10T01:11:53;12.90;100.00
25438;DHT22;13364;49.084;9.978;2023-05-10T01:14:21;12.90;100.00
25438;DHT22;13364;49.084;9.978;2023-05-10T01:16:49;12.90;100.00
25438;DHT22;13364;49.084;9.978;2023-05-10T01:19:23;13.00;100.00
25438;DHT22;13364;49.084;9.978;2023-05-10T01:32:16;13.30;100.00
25438;DHT22;13364;49.084;9.978;2023-05-10T01:34:59;13.40;100.00
25438;DHT22;13364;49.084;9.978;2023-05-10T01:37:46;13.40;100.00
25438;DHT22;13364;49.084;9.978;2023-05-10T01:40:23;13.40;100.00
25438;DHT22;13364;49.084;9.978;2023-05-10T01:43:02;13.40;100.00
25438;DHT22;13364;49.084;9.978;2023-05-10T01:45:50;13.30;100.00
25438;DHT22;13364;49.084;9.978;2023-05-10T01:48:23;13.30;100.00
25438;DHT22;13364;49.084;9.978;2023-05-10T01:50:52;13.20;100.00
25438;DHT22;13364;49.084;9.978;2023-05-10T01:53:20;13.20;100.00
25438;DHT22;13364;49.084;9.978;2023-05-10T01:55:50;13.20;100.00
25438;DHT22;13364;49.084;9.978;2023-05-10T01:58:22;13.10;100.00
25438;DHT22;13364;49.084;9.978;2023-05-10T02:00:50;13.00;100.00
25438;DHT22;13364;49.084;9.978;2023-05-10T02:03:23;12.80;100.00
25438;DHT22;13364;49.084;9.978;2023-05-10T02:05:52;12.70;100.00
25438;DHT22;13364;49.084;9.978;2023-05-10T02:08:22;12.70;100.00
25438;DHT22;13364;49.084;9.978;2023-05-10T02:10:50;12.60;100.00
25438;DHT22;13364;49.084;9.978;2023-05-10T02:13:18;12.60;100.00
25438;DHT22;13364;49.084;9.978;2023-05-10T02:15:48;12.50;100.00
25438;DHT22;13364;49.084;9.978;2023-05-10T02:18:16;12.50;100.00
25438;DHT22;13364;49.084;9.978;2023-05-10T02:20:45;12.50;100.00
25438;DHT22;13364;49.084;9.978;2023-05-10T02:23:16;12.50;100.00
25438;DHT22;13364;49.084;9.978;2023-05-10T02:25:45;12.40;100.00
25438;DHT22;13364;49.084;9.978;2023-05-10T02:28:14;12.30;100.00
25438;DHT22;13364;49.084;9.978;2023-05-10T02:30:42;12.30;100.00
25438;DHT22;13364;49.084;9.978;2023-05-10T02:33:10;12.20;100.00
25438;DHT22;13364;49.084;9.978;2023-05-10T02:35:38;12.20;100.00
25438;DHT22;13364;49.084;9.978;2023-05-10T02:38:09;12.20;100.00
25438;DHT22;13364;49.084;9.978;2023-05-10T02:40:38;12.10;100.00
25438;DHT22;13364;49.084;9.978;2023-05-10T02:43:10;12.10;100.00
25438;DHT22;13364;49.084;9.978;2023-05-10T02:45:38;12.00;100.00
25438;DHT22;13364;49.084;9.978;2023-05-10T02:48:08;11.90;100.00
25438;DHT22;13364;49.084;9.978;2023-05-10T02:50:37;12.00;100.00
25438;DHT22;13364;49.084;9.978;2023-05-10T02:53:15;12.00;100.00
25438;DHT22;13364;49.084;9.978;2023-05-10T02:55:49;12.10;100.00
25438;DHT22;13364;49.084;9.978;2023-05-10T02:58:17;12.00;100.00
25438;DHT22;13364;49.084;9.978;2023-05-10T03:00:46;11.90;100.00
25438;DHT22;13364;49.084;9.978;2023-05-10T03:03:13;11.80;100.00
25438;DHT22;13364;49.084;9.978;2023-05-10T03:05:40;11.80;100.00
25438;DHT22;13364;49.084;9.978;2023-05-10T03:08:07;11.80;100.00
25438;DHT22;13364;49.084;9.978;2023-05-10T03:10:41;11.70;100.00
25438;DHT22;13364;49.084;9.978;2023-05-10T03:13:32;11.70;100.00
25438;DHT22;13364;49.084;9.978;2023-05-10T03:16:12;11.70;100.00
25438;DHT22;13364;49.084;9.978;2023-05-10T03:18:50;11.60;100.00
25438;DHT22;13364;49.084;9.978;2023-05-10T03:21:22;11.60;100.00
25438;DHT22;13364;49.084;9.978;2023-05-10T03:24:07;11.60;100.00
25438;DHT22;13364;49.084;9.978;2023-05-10T03:26:37;11.60;100.00
25438;DHT22;13364;49.084;9.978;2023-05-10T03:29:13;11.50;100.00
25438;DHT22;13364;49.084;9.978;2023-05-10T03:31:42;11.50;100.00
25438;DHT22;13364;49.084;9.978;2023-05-10T03:34:09;11.50;100.00
25438;DHT22;13364;49.084;9.978;2023-05-10T03:36:36;11.50;100.00
25438;DHT22;13364;49.084;9.978;2023-05-10T03:39:03;11.50;100.00
25438;DHT22;13364;49.084;9.978;2023-05-10T03:41:30;11.50;100.00
25438;DHT22;13364;49.084;9.978;2023-05-10T03:43:57;11.40;100.00
25438;DHT22;13364;49.084;9.978;2023-05-10T03:46:24;11.50;100.00
25438;DHT22;13364;49.084;9.978;2023-05-10T03:48:52;11.50;100.00
25438;DHT22;13364;49.084;9.978;2023-05-10T03:51:19;11.60;100.00
25438;DHT22;13364;49.084;9.978;2023-05-10T03:57:51;11.60;100.00
25438;DHT22;13364;49.084;9.978;2023-05-10T04:00:21;11.70;100.00
25438;DHT22;13364;49.084;9.978;2023-05-10T04:02:52;11.70;100.00
25438;DHT22;13364;49.084;9.978;2023-05-10T04:05:19;11.70;100.00
25438;DHT22;13364;49.084;9.978;2023-05-10T04:07:46;11.70;100.00
25438;DHT22;13364;49.084;9.978;2023-05-10T04:10:16;11.70;100.00
25438;DHT22;13364;49.084;9.978;2023-05-10T04:12:43;11.70;100.00
25438;DHT22;13364;49.084;9.978;2023-05-10T04:15:10;11.60;100.00
25438;DHT22;13364;49.084;9.978;2023-05-10T04:17:37;11.60;100.00
25438;DHT22;13364;49.084;9.978;2023-05-10T04:20:05;11.60;100.00
25438;DHT22;13364;49.084;9.978;2023-05-10T04:22:32;11.50;100.00
25438;DHT22;13364;49.084;9.978;2023-05-10T04:24:59;11.50;100.00
25438;DHT22;13364;49.084;9.978;2023-05-10T04:27:26;11.50;100.00
25438;DHT22;13364;49.084;9.978;2023-05-10T04:29:54;11.50;100.00
25438;DHT22;13364;49.084;9.978;2023-05-10T04:32:21;11.60;100.00
25438;DHT22;13364;49.084;9.978;2023-05-10T04:34:48;11.50;100.00
25438;DHT22;13364;49.084;9.978;2023-05-10T04:37:15;11.40;100.00
25438;DHT22;13364;49.084;9.978;2023-05-10T04:39:42;11.50;100.00
25438;DHT22;13364;49.084;9.978;2023-05-10T04:42:09;11.50;100.00
25438;DHT22;13364;49.084;9.978;2023-05-10T04:44:36;11.50;100.00
25438;DHT22;13364;49.084;9.978;2023-05-10T04:47:03;11.60;100.00
25438;DHT22;13364;49.084;9.978;2023-05-10T04:49:31;11.70;100.00
25438;DHT22;13364;49.084;9.978;2023-05-10T04:51:58;11.70;100.00
25438;DHT22;13364;49.084;9.978;2023-05-10T04:54:25;11.70;100.00
25438;DHT22;13364;49.084;9.978;2023-05-10T04:56:52;11.70;100.00
25438;DHT22;13364;49.084;9.978;2023-05-10T04:59:19;11.80;100.00
25438;DHT22;13364;49.084;9.978;2023-05-10T05:01:46;11.80;100.00
25438;DHT22;13364;49.084;9.978;2023-05-10T05:04:13;11.90;100.00
25438;DHT22;13364;49.084;9.978;2023-05-10T05:06:41;11.90;100.00
25438;DHT22;13364;49.084;9.978;2023-05-10T05:09:08;11.90;100.00
25438;DHT22;13364;49.084;9.978;2023-05-10T05:11:36;12.00;100.00
25438;DHT22;13364;49.084;9.978;2023-05-10T05:14:03;12.10;100.00
25438;DHT22;13364;49.084;9.978;2023-05-10T05:16:31;12.10;100.00
25438;DHT22;13364;49.084;9.978;2023-05-10T05:19:07;12.20;100.00
25438;DHT22;13364;49.084;9.978;2023-05-10T05:21:34;12.20;100.00
25438;DHT22;13364;49.084;9.978;2023-05-10T05:24:00;12.30;100.00
25438;DHT22;13364;49.084;9.978;2023-05-10T05:26:28;12.30;100.00
25438;DHT22;13364;49.084;9.978;2023-05-10T05:28:55;12.30;100.00
25438;DHT22;13364;49.084;9.978;2023-05-10T05:31:22;12.30;100.00
25438;DHT22;13364;49.084;9.978;2023-05-10T05:33:49;12.40;100.00
25438;DHT22;13364;49.084;9.978;2023-05-10T05:36:16;12.40;100.00
25438;DHT22;13364;49.084;9.978;2023-05-10T05:38:43;12.40;100.00
25438;DHT22;13364;49.084;9.978;2023-05-10T05:41:10;12.50;100.00
25438;DHT22;13364;49.084;9.978;2023-05-10T05:43:37;12.50;100.00
25438;DHT22;13364;49.084;9.978;2023-05-10T05:46:04;12.50;100.00
25438;DHT22;13364;49.084;9.978;2023-05-10T05:48:32;12.50;100.00
25438;DHT22;13364;49.084;9.978;2023-05-10T05:50:59;12.40;100.00
25438;DHT22;13364;49.084;9.978;2023-05-10T05:53:26;12.30;100.00
25438;DHT22;13364;49.084;9.978;2023-05-10T05:55:57;12.30;100.00
25438;DHT22;13364;49.084;9.978;2023-05-10T05:58:25;12.20;100.00
25438;DHT22;13364;49.084;9.978;2023-05-10T06:00:52;12.20;100.00
25438;DHT22;13364;49.084;9.978;2023-05-10T06:03:20;12.20;100.00
25438;DHT22;13364;49.084;9.978;2023-05-10T06:05:47;12.10;100.00
25438;DHT22;13364;49.084;9.978;2023-05-10T06:08:14;12.10;100.00
25438;DHT22;13364;49.084;9.978;2023-05-10T06:10:42;12.10;100.00
25438;DHT22;13364;49.084;9.978;2023-05-10T06:13:09;12.10;100.00
25438;DHT22;13364;49.084;9.978;2023-05-10T06:15:36;12.20;100.00
25438;DHT22;13364;49.084;9.978;2023-05-10T06:18:04;12.30;100.00
25438;DHT22;13364;49.084;9.978;2023-05-10T06:20:31;12.40;100.00
25438;DHT22;13364;49.084;9.978;2023-05-10T06:22:58;12.50;100.00
25438;DHT22;13364;49.084;9.978;2023-05-10T06:25:25;12.50;100.00
25438;DHT22;13364;49.084;9.978;2023-05-10T06:27:52;12.60;100.00
25438;DHT22;13364;49.084;9.978;2023-05-10T06:30:25;12.60;100.00
25438;DHT22;13364;49.084;9.978;2023-05-10T06:32:55;12.50;100.00
25438;DHT22;13364;49.084;9.978;2023-05-10T06:35:22;12.60;100.00
25438;DHT22;13364;49.084;9.978;2023-05-10T06:37:50;12.60;100.00
25438;DHT22;13364;49.084;9.978;2023-05-10T06:40:18;12.60;100.00
25438;DHT22;13364;49.084;9.978;2023-05-10T06:42:46;12.70;100.00
25438;DHT22;13364;49.084;9.978;2023-05-10T06:45:14;12.60;100.00
25438;DHT22;13364;49.084;9.978;2023-05-10T06:47:42;12.60;100.00
25438;DHT22;13364;49.084;9.978;2023-05-10T06:50:10;12.50;100.00
25438;DHT22;13364;49.084;9.978;2023-05-10T06:52:38;12.60;100.00
25438;DHT22;13364;49.084;9.978;2023-05-10T06:55:06;12.60;100.00
25438;DHT22;13364;49.084;9.978;2023-05-10T06:57:33;12.60;100.00
25438;DHT22;13364;49.084;9.978;2023-05-10T07:00:00;12.70;100.00
25438;DHT22;13364;49.084;9.978;2023-05-10T07:02:27;12.70;100.00
25438;DHT22;13364;49.084;9.978;2023-05-10T07:04:55;12.80;100.00
25438;DHT22;13364;49.084;9.978;2023-05-10T07:07:22;12.90;100.00
25438;DHT22;13364;49.084;9.978;2023-05-10T07:09:49;13.00;100.00
25438;DHT22;13364;49.084;9.978;2023-05-10T07:12:17;13.00;100.00
25438;DHT22;13364;49.084;9.978;2023-05-10T07:14:44;13.10;100.00
25438;DHT22;13364;49.084;9.978;2023-05-10T07:17:11;13.20;100.00
25438;DHT22;13364;49.084;9.978;2023-05-10T07:19:38;13.10;100.00
25438;DHT22;13364;49.084;9.978;2023-05-10T07:22:05;13.20;100.00
25438;DHT22;13364;49.084;9.978;2023-05-10T07:24:33;13.30;100.00
25438;DHT22;13364;49.084;9.978;2023-05-10T07:27:00;13.30;99.70
25438;DHT22;13364;49.084;9.978;2023-05-10T07:29:27;13.30;99.30
25438;DHT22;13364;49.084;9.978;2023-05-10T07:31:55;13.30;99.30
25438;DHT22;13364;49.084;9.978;2023-05-10T07:34:24;13.40;99.90
25438;DHT22;13364;49.084;9.978;2023-05-10T07:36:52;13.50;99.90
25438;DHT22;13364;49.084;9.978;2023-05-10T07:39:19;13.70;99.10
25438;DHT22;13364;49.084;9.978;2023-05-10T07:41:54;13.80;99.00
25438;DHT22;13364;49.084;9.978;2023-05-10T07:44:22;13.90;97.80
25438;DHT22;13364;49.084;9.978;2023-05-10T07:46:49;13.80;97.10
25438;DHT22;13364;49.084;9.978;2023-05-10T07:49:16;13.80;97.30
25438;DHT22;13364;49.084;9.978;2023-05-10T07:51:43;13.90;97.00
25438;DHT22;13364;49.084;9.978;2023-05-10T07:54:10;13.90;97.50
25438;DHT22;13364;49.084;9.978;2023-05-10T07:56:38;13.90;97.10
25438;DHT22;13364;49.084;9.978;2023-05-10T07:59:06;14.00;96.30
25438;DHT22;13364;49.084;9.978;2023-05-10T08:01:36;14.00;96.90
25438;DHT22;13364;49.084;9.978;2023-05-10T08:04:03;14.10;96.70
25438;DHT22;13364;49.084;9.978;2023-05-10T08:06:30;14.10;96.30
25438;DHT22;13364;49.084;9.978;2023-05-10T08:08:57;14.20;95.70
25438;DHT22;13364;49.084;9.978;2023-05-10T08:11:24;14.20;94.10
25438;DHT22;13364;49.084;9.978;2023-05-10T08:13:52;14.20;93.20
25438;DHT22;13364;49.084;9.978;2023-05-10T08:16:20;14.30;94.10
25438;DHT22;13364;49.084;9.978;2023-05-10T08:18:47;14.40;93.60
25438;DHT22;13364;49.084;9.978;2023-05-10T08:21:16;14.50;93.80
25438;DHT22;13364;49.084;9.978;2023-05-10T08:23:43;14.70;92.80
25438;DHT22;13364;49.084;9.978;2023-05-10T08:26:11;14.70;92.00
25438;DHT22;13364;49.084;9.978;2023-05-10T08:28:38;14.80;92.20
25438;DHT22;13364;49.084;9.978;2023-05-10T08:31:05;14.80;89.60
25438;DHT22;13364;49.084;9.978;2023-05-10T08:33:32;14.80;89.70
25438;DHT22;13364;49.084;9.978;2023-05-10T08:35:59;14.70;89.10
25438;DHT22;13364;49.084;9.978;2023-05-10T08:38:26;14.70;89.40
25438;DHT22;13364;49.084;9.978;2023-05-10T08:40:55;14.70;88.50
25438;DHT22;13364;49.084;9.978;2023-05-10T08:43:29;14.70;89.00
25438;DHT22;13364;49.084;9.978;2023-05-10T08:46:00;14.80;90.50
25438;DHT22;13364;49.084;9.978;2023-05-10T08:48:30;14.90;92.00
25438;DHT22;13364;49.084;9.978;2023-05-10T08:50:59;15.10;87.50
25438;DHT22;13364;49.084;9.978;2023-05-10T08:53:27;15.20;88.00
25438;DHT22;13364;49.084;9.978;2023-05-10T08:55:55;15.30;87.30
25438;DHT22;13364;49.084;9.978;2023-05-10T08:58:22;15.30;87.50
25438;DHT22;13364;49.084;9.978;2023-05-10T09:00:50;15.40;87.60
25438;DHT22;13364;49.084;9.978;2023-05-10T09:03:20;15.40;85.30
25438;DHT22;13364;49.084;9.978;2023-05-10T09:05:48;15.30;85.80
25438;DHT22;13364;49.084;9.978;2023-05-10T09:08:16;15.20;85.60
25438;DHT22;13364;49.084;9.978;2023-05-10T09:10:44;15.20;86.10
25438;DHT22;13364;49.084;9.978;2023-05-10T09:13:14;15.20;84.90
25438;DHT22;13364;49.084;9.978;2023-05-10T09:15:45;15.20;87.30
25438;DHT22;13364;49.084;9.978;2023-05-10T09:18:12;15.40;87.60
25438;DHT22;13364;49.084;9.978;2023-05-10T09:20:40;15.50;85.30
25438;DHT22;13364;49.084;9.978;2023-05-10T09:23:10;15.50;83.20
25438;DHT22;13364;49.084;9.978;2023-05-10T09:25:37;15.40;82.90
25438;DHT22;13364;49.084;9.978;2023-05-10T09:28:08;15.40;84.10
25438;DHT22;13364;49.084;9.978;2023-05-10T09:30:36;15.40;84.70
25438;DHT22;13364;49.084;9.978;2023-05-10T09:33:04;15.50;83.90
25438;DHT22;13364;49.084;9.978;2023-05-10T09:35:32;15.50;85.30
25438;DHT22;13364;49.084;9.978;2023-05-10T09:38:02;15.60;83.20
25438;DHT22;13364;49.084;9.978;2023-05-10T09:40:50;15.70;83.10
25438;DHT22;13364;49.084;9.978;2023-05-10T09:44:31;15.80;84.60
25438;DHT22;13364;49.084;9.978;2023-05-10T09:47:22;15.80;80.90
25438;DHT22;13364;49.084;9.978;2023-05-10T09:49:49;15.80;81.80
25438;DHT22;13364;49.084;9.978;2023-05-10T09:52:17;15.80;82.20
25438;DHT22;13364;49.084;9.978;2023-05-10T09:54:53;15.70;81.10
25438;DHT22;13364;49.084;9.978;2023-05-10T09:57:27;15.70;83.10
25438;DHT22;13364;49.084;9.978;2023-05-10T09:59:55;15.90;81.70
25438;DHT22;13364;49.084;9.978;2023-05-10T10:02:39;15.90;81.40
25438;DHT22;13364;49.084;9.978;2023-05-10T10:05:07;16.00;81.10
25438;DHT22;13364;49.084;9.978;2023-05-10T10:07:35;15.90;79.30
25438;DHT22;13364;49.084;9.978;2023-05-10T10:10:03;15.80;80.50
25438;DHT22;13364;49.084;9.978;2023-05-10T10:12:31;15.80;79.50
25438;DHT22;13364;49.084;9.978;2023-05-10T10:14:59;15.60;79.70
25438;DHT22;13364;49.084;9.978;2023-05-10T10:17:30;15.40;81.60
25438;DHT22;13364;49.084;9.978;2023-05-10T10:19:58;15.30;84.10
25438;DHT22;13364;49.084;9.978;2023-05-10T10:22:26;15.00;85.30
25438;DHT22;13364;49.084;9.978;2023-05-10T10:24:54;14.70;87.30
25438;DHT22;13364;49.084;9.978;2023-05-10T10:27:56;14.70;88.40
25438;DHT22;13364;49.084;9.978;2023-05-10T10:30:42;14.40;89.80
25438;DHT22;13364;49.084;9.978;2023-05-10T10:36:15;14.30;91.70
25438;DHT22;13364;49.084;9.978;2023-05-10T10:41:33;14.30;93.70
25438;DHT22;13364;49.084;9.978;2023-05-10T10:47:08;14.30;93.70
25438;DHT22;13364;49.084;9.978;2023-05-10T10:49:49;14.10;92.70
25438;DHT22;13364;49.084;9.978;2023-05-10T10:55:13;14.10;94.70
25438;DHT22;13364;49.084;9.978;2023-05-10T11:00:26;14.20;96.10
25438;DHT22;13364;49.084;9.978;2023-05-10T11:02:57;14.40;95.80
25438;DHT22;13364;49.084;9.978;2023-05-10T11:05:28;14.40;94.60
25438;DHT22;13364;49.084;9.978;2023-05-10T11:08:15;14.50;94.40
25438;DHT22;13364;49.084;9.978;2023-05-10T11:11:08;14.50;92.90
25438;DHT22;13364;49.084;9.978;2023-05-10T11:13:44;14.60;93.10
25438;DHT22;13364;49.084;9.978;2023-05-10T11:16:23;14.70;92.90
25438;DHT22;13364;49.084;9.978;2023-05-10T11:19:01;14.80;91.50
25438;DHT22;13364;49.084;9.978;2023-05-10T11:21:30;14.90;92.10
25438;DHT22;13364;49.084;9.978;2023-05-10T11:27:03;14.90;90.30
25438;DHT22;13364;49.084;9.978;2023-05-10T11:29:30;15.00;91.00
25438;DHT22;13364;49.084;9.978;2023-05-10T11:31:58;15.20;91.70
25438;DHT22;13364;49.084;9.978;2023-05-10T11:34:30;15.30;89.40
25438;DHT22;13364;49.084;9.978;2023-05-10T11:36:59;15.50;89.80
25438;DHT22;13364;49.084;9.978;2023-05-10T11:39:28;15.50;89.10
25438;DHT22;13364;49.084;9.978;2023-05-10T11:41:56;15.60;88.00
25438;DHT22;13364;49.084;9.978;2023-05-10T11:44:33;15.60;88.20
25438;DHT22;13364;49.084;9.978;2023-05-10T11:47:01;15.80;87.80
25438;DHT22;13364;49.084;9.978;2023-05-10T11:49:32;15.80;85.80
25438;DHT22;13364;49.084;9.978;2023-05-10T11:52:05;15.80;86.10
25438;DHT22;13364;49.084;9.978;2023-05-10T11:54:33;15.70;84.10
25438;DHT22;13364;49.084;9.978;2023-05-10T11:57:02;15.70;84.60
25438;DHT22;13364;49.084;9.978;2023-05-10T11:59:54;15.80;84.60
25438;DHT22;13364;49.084;9.978;2023-05-10T12:02:23;15.90;84.30
25438;DHT22;13364;49.084;9.978;2023-05-10T12:04:50;16.00;83.80
25438;DHT22;13364;49.084;9.978;2023-05-10T12:07:18;16.10;83.50
25438;DHT22;13364;49.084;9.978;2023-05-10T12:10:06;16.20;83.60
25438;DHT22;13364;49.084;9.978;2023-05-10T12:12:41;16.30;82.10
25438;DHT22;13364;49.084;9.978;2023-05-10T12:15:23;16.40;81.10
25438;DHT22;13364;49.084;9.978;2023-05-10T12:17:51;16.40;79.30
25438;DHT22;13364;49.084;9.978;2023-05-10T12:20:20;16.40;77.90
25438;DHT22;13364;49.084;9.978;2023-05-10T12:22:53;16.30;76.90
25438;DHT22;13364;49.084;9.978;2023-05-10T12:25:23;16.30;78.40
25438;DHT22;13364;49.084;9.978;2023-05-10T12:27:52;16.20;79.40
25438;DHT22;13364;49.084;9.978;2023-05-10T12:32:50;16.30;79.00
25438;DHT22;13364;49.084;9.978;2023-05-10T12:35:19;16.50;78.20
25438;DHT22;13364;49.084;9.978;2023-05-10T12:37:51;16.50;78.20
25438;DHT22;13364;49.084;9.978;2023-05-10T12:40:18;16.60;77.50
25438;DHT22;13364;49.084;9.978;2023-05-10T12:42:45;16.60;75.20
25438;DHT22;13364;49.084;9.978;2023-05-10T12:45:12;16.50;75.90
25438;DHT22;13364;49.084;9.978;2023-05-10T12:47:39;16.40;76.10
25438;DHT22;13364;49.084;9.978;2023-05-10T12:50:09;16.30;76.90
25438;DHT22;13364;49.084;9.978;2023-05-10T12:52:37;16.20;77.30
25438;DHT22;13364;49.084;9.978;2023-05-10T12:55:04;16.10;76.90
25438;DHT22;13364;49.084;9.978;2023-05-10T12:57:31;16.00;78.20
25438;DHT22;13364;49.084;9.978;2023-05-10T12:59:58;15.90;77.10
25438;DHT22;13364;49.084;9.978;2023-05-10T13:02:25;15.80;79.10
25438;DHT22;13364;49.084;9.978;2023-05-10T13:04:52;15.80;78.40
25438;DHT22;13364;49.084;9.978;2023-05-10T13:07:20;15.70;78.60
25438;DHT22;13364;49.084;9.978;2023-05-10T13:09:47;15.70;79.80
25438;DHT22;13364;49.084;9.978;2023-05-10T13:12:14;15.70;80.70
25438;DHT22;13364;49.084;9.978;2023-05-10T13:14:41;15.80;78.80
25438;DHT22;13364;49.084;9.978;2023-05-10T13:17:08;15.70;78.80
25438;DHT22;13364;49.084;9.978;2023-05-10T13:19:35;15.60;79.10
25438;DHT22;13364;49.084;9.978;2023-05-10T13:22:02;15.60;79.50
25438;DHT22;13364;49.084;9.978;2023-05-10T13:24:30;15.60;80.60
25438;DHT22;13364;49.084;9.978;2023-05-10T13:26:57;15.60;80.50
25438;DHT22;13364;49.084;9.978;2023-05-10T13:29:24;15.60;80.40
25438;DHT22;13364;49.084;9.978;2023-05-10T13:31:51;15.40;80.10
25438;DHT22;13364;49.084;9.978;2023-05-10T13:34:18;15.30;81.10
25438;DHT22;13364;49.084;9.978;2023-05-10T13:36:47;15.30;81.50
25438;DHT22;13364;49.084;9.978;2023-05-10T13:39:16;15.40;82.10
25438;DHT22;13364;49.084;9.978;2023-05-10T13:41:43;15.60;82.90
25438;DHT22;13364;49.084;9.978;2023-05-10T13:44:12;15.70;80.90
25438;DHT22;13364;49.084;9.978;2023-05-10T13:46:40;15.80;80.40
25438;DHT22;13364;49.084;9.978;2023-05-10T13:49:09;15.70;78.80
25438;DHT22;13364;49.084;9.978;2023-05-10T13:51:36;15.60;78.70
25438;DHT22;13364;49.084;9.978;2023-05-10T13:54:03;15.50;80.50
25438;DHT22;13364;49.084;9.978;2023-05-10T13:56:30;15.50;79.70
25438;DHT22;13364;49.084;9.978;2023-05-10T13:58:57;15.50;78.40
25438;DHT22;13364;49.084;9.978;2023-05-10T14:01:25;15.40;79.10
25438;DHT22;13364;49.084;9.978;2023-05-10T14:03:52;15.40;78.60
25438;DHT22;13364;49.084;9.978;2023-05-10T14:06:19;15.20;79.70
25438;DHT22;13364;49.084;9.978;2023-05-10T14:08:46;15.10;81.00
25438;DHT22;13364;49.084;9.978;2023-05-10T14:11:13;15.10;80.60
25438;DHT22;13364;49.084;9.978;2023-05-10T14:13:40;15.00;81.30
25438;DHT22;13364;49.084;9.978;2023-05-10T14:16:07;15.10;81.50
25438;DHT22;13364;49.084;9.978;2023-05-10T14:18:34;15.20;81.50
25438;DHT22;13364;49.084;9.978;2023-05-10T14:21:02;15.10;79.90
25438;DHT22;13364;49.084;9.978;2023-05-10T14:23:30;15.10;81.10
25438;DHT22;13364;49.084;9.978;2023-05-10T14:25:57;15.10;81.30
25438;DHT22;13364;49.084;9.978;2023-05-10T14:28:24;15.20;79.70
25438;DHT22;13364;49.084;9.978;2023-05-10T14:30:51;15.10;80.00
25438;DHT22;13364;49.084;9.978;2023-05-10T14:33:18;15.20;80.30
25438;DHT22;13364;49.084;9.978;2023-05-10T14:35:46;15.20;80.30
25438;DHT22;13364;49.084;9.978;2023-05-10T14:38:14;15.30;81.60
25438;DHT22;13364;49.084;9.978;2023-05-10T14:40:41;15.40;80.70
25438;DHT22;13364;49.084;9.978;2023-05-10T14:43:09;15.50;79.40
25438;DHT22;13364;49.084;9.978;2023-05-10T14:45:36;15.50;79.00
25438;DHT22;13364;49.084;9.978;2023-05-10T14:48:03;15.50;78.90
25438;DHT22;13364;49.084;9.978;2023-05-10T14:50:31;15.60;79.10
25438;DHT22;13364;49.084;9.978;2023-05-10T14:53:03;15.70;79.00
25438;DHT22;13364;49.084;9.978;2023-05-10T14:58:55;15.60;80.50
25438;DHT22;13364;49.084;9.978;2023-05-10T15:01:22;15.70;81.40
25438;DHT22;13364;49.084;9.978;2023-05-10T15:03:50;15.60;82.00
25438;DHT22;13364;49.084;9.978;2023-05-10T15:06:23;15.50;81.60
25438;DHT22;13364;49.084;9.978;2023-05-10T15:08:51;15.30;82.30
25438;DHT22;13364;49.084;9.978;2023-05-10T15:11:19;15.40;82.90
25438;DHT22;13364;49.084;9.978;2023-05-10T15:14:18;15.40;82.50
25438;DHT22;13364;49.084;9.978;2023-05-10T15:16:45;15.40;82.60
25438;DHT22;13364;49.084;9.978;2023-05-10T15:19:12;15.50;82.10
25438;DHT22;13364;49.084;9.978;2023-05-10T15:21:39;15.40;81.80
25438;DHT22;13364;49.084;9.978;2023-05-10T15:24:09;15.50;82.40
25438;DHT22;13364;49.084;9.978;2023-05-10T15:26:36;15.60;82.70
25438;DHT22;13364;49.084;9.978;2023-05-10T15:29:03;15.60;82.30
25438;DHT22;13364;49.084;9.978;2023-05-10T15:31:30;15.50;82.20
25438;DHT22;13364;49.084;9.978;2023-05-10T15:33:57;15.60;82.40
25438;DHT22;13364;49.084;9.978;2023-05-10T15:36:27;15.60;82.80
25438;DHT22;13364;49.084;9.978;2023-05-10T15:38:54;15.80;81.50
25438;DHT22;13364;49.084;9.978;2023-05-10T15:41:22;15.90;81.60
25438;DHT22;13364;49.084;9.978;2023-05-10T15:43:50;16.00;80.70
25438;DHT22;13364;49.084;9.978;2023-05-10T15:46:17;16.10;80.70
25438;DHT22;13364;49.084;9.978;2023-05-10T15:48:44;16.20;80.50
25438;DHT22;13364;49.084;9.978;2023-05-10T15:51:11;16.30;80.20
25438;DHT22;13364;49.084;9.978;2023-05-10T15:53:38;16.40;79.40
25438;DHT22;13364;49.084;9.978;2023-05-10T15:56:18;16.40;80.50
25438;DHT22;13364;49.084;9.978;2023-05-10T15:58:46;16.40;79.80
25438;DHT22;13364;49.084;9.978;2023-05-10T16:01:13;16.40;76.60
25438;DHT22;13364;49.084;9.978;2023-05-10T16:03:40;16.30;76.60
25438;DHT22;13364;49.084;9.978;2023-05-10T16:06:07;16.20;74.40
25438;DHT22;13364;49.084;9.978;2023-05-10T16:08:34;16.00;75.60
25438;DHT22;13364;49.084;9.978;2023-05-10T16:11:02;16.00;74.60
25438;DHT22;13364;49.084;9.978;2023-05-10T16:13:29;15.90;75.80
25438;DHT22;13364;49.084;9.978;2023-05-10T16:15:56;15.90;75.30